Time;durP1;ratioP1;P1;durP2;ratioP2;P2;SDS_P1;SDS_P2;PMS_P1;PMS_P2;Temp;Humidity;BMP_temperature;BMP_pressure;BME280_temperature;BME280_humidity;BME280_pressure;Samples;Min_cycle;Max_cycle;Signal;HPM_P1;HPM_P2
2023/02/19 00:01:54;;;;;;;0.30;0.30;;;;;;;10.25;69.19;99611.78;5094244;28;20044;-65
2023/02/19 00:04:22;;;;;;;0.30;0.30;;;;;;;10.22;69.39;99606.72;5093833;28;20075;-65
2023/02/19 00:06:51;;;;;;;0.43;0.43;;;;;;;10.31;69.18;99622.84;5093732;28;20058;-65
2023/02/19 00:09:20;;;;;;;0.30;0.30;;;;;;;10.49;68.29;99614.31;5093695;28;20040;-65
2023/02/19 00:11:49;;;;;;;0.30;0.30;;;;;;;10.56;67.84;99609.19;5093747;28;20552;-65
2023/02/19 00:14:20;;;;;;;0.32;0.32;;;;;;;10.55;68.09;99612.63;5093669;28;20126;-65
2023/02/19 00:16:51;;;;;;;0.30;0.30;;;;;;;10.43;68.16;99622.84;5093647;28;20055;-65
2023/02/19 00:19:21;;;;;;;0.30;0.30;;;;;;;10.47;67.90;99596.47;5093314;28;20093;-65
2023/02/19 00:21:52;;;;;;;0.40;0.40;;;;;;;10.74;66.65;99614.28;5093938;28;20387;-65
2023/02/19 00:24:21;;;;;;;0.30;0.30;;;;;;;10.65;66.94;99623.66;5093593;28;20051;-65
2023/02/19 00:26:50;;;;;;;0.30;0.30;;;;;;;10.74;66.38;99621.94;5093493;28;20040;-65
2023/02/19 00:29:21;;;;;;;0.20;0.20;;;;;;;10.77;66.14;99629.56;5094090;28;20491;-65
2023/02/19 00:31:52;;;;;;;0.40;0.40;;;;;;;10.58;66.55;99624.53;5093531;28;20276;-65
2023/02/19 00:34:21;;;;;;;0.30;0.30;;;;;;;10.38;67.83;99611.78;5092240;28;20058;-65
2023/02/19 00:36:50;;;;;;;0.30;0.30;;;;;;;10.20;68.23;99604.13;5093696;28;20105;-65
2023/02/19 00:39:20;;;;;;;;;;;;;;;10.08;68.99;99607.50;5092927;28;20044;-65
2023/02/19 00:41:48;;;;;;;0.47;0.47;;;;;;;9.99;69.12;99614.31;5093719;28;19923;-65
2023/02/19 00:44:18;;;;;;;0.35;0.35;;;;;;;9.89;69.47;99607.50;5092198;28;20044;-65
2023/02/19 00:46:49;;;;;;;3.63;1.20;;;;;;;9.76;69.78;99600.72;5093730;28;20130;-66
2023/02/19 00:49:22;;;;;;;0.30;0.30;;;;;;;9.64;69.75;99606.66;5093324;28;20131;-66
2023/02/19 00:51:52;;;;;;;0.20;0.20;;;;;;;9.66;70.45;99619.38;5093669;28;20048;-65
2023/02/19 00:54:22;;;;;;;0.30;0.30;;;;;;;9.59;70.33;99617.66;5093299;28;20068;-66
2023/02/19 00:56:51;;;;;;;0.30;0.30;;;;;;;9.75;70.63;99610.06;5092030;28;20047;-66
2023/02/19 00:59:20;;;;;;;0.90;0.60;;;;;;;9.80;70.75;99613.47;5091912;28;20093;-65
2023/02/19 01:01:49;;;;;;;0.55;0.55;;;;;;;9.74;70.81;99617.69;5092058;28;20579;-65
2023/02/19 01:04:20;;;;;;;0.30;0.30;;;;;;;9.68;71.21;99612.59;5093571;28;20036;-65
2023/02/19 01:06:48;;;;;;;0.43;0.43;;;;;;;9.66;71.78;99611.72;5092366;28;20048;-65
2023/02/19 01:09:17;;;;;;;0.27;0.27;;;;;;;9.62;72.15;99602.41;5093526;28;20069;-66
2023/02/19 01:11:46;;;;;;;0.40;0.40;;;;;;;9.59;72.25;99607.47;5097056;28;20759;-65
2023/02/19 01:14:15;;;;;;;0.30;0.30;;;;;;;9.55;72.70;99605.78;5095842;28;20036;-65
2023/02/19 01:16:44;;;;;;;0.30;0.30;;;;;;;9.44;72.55;99608.28;5096850;28;20371;-65
2023/02/19 01:19:12;;;;;;;0.47;0.47;;;;;;;9.34;72.81;99607.41;5096538;28;20040;-65
2023/02/19 01:21:43;;;;;;;0.40;0.40;;;;;;;9.18;73.38;99598.03;5096791;28;20394;-65
2023/02/19 01:24:11;;;;;;;0.20;0.20;;;;;;;9.12;73.31;99605.63;5097377;28;20394;-65
2023/02/19 01:26:40;;;;;;;0.40;0.40;;;;;;;8.94;73.81;99595.38;5095609;28;20048;-65
2023/02/19 01:29:10;;;;;;;0.30;0.30;;;;;;;8.88;74.89;99597.88;5096628;28;20044;-65
2023/02/19 01:31:40;;;;;;;0.30;0.30;;;;;;;8.83;75.27;99597.00;5096584;28;20094;-65
2023/02/19 01:34:11;;;;;;;0.47;0.47;;;;;;;8.71;75.60;99592.72;5095729;28;20126;-66
2023/02/19 01:36:42;;;;;;;0.32;0.32;;;;;;;8.62;75.59;99587.59;5096485;28;20126;-66
2023/02/19 01:39:11;;;;;;;0.30;0.30;;;;;;;8.61;76.17;99585.06;5095341;28;20040;-66
2023/02/19 01:41:41;;;;;;;0.50;0.50;;;;;;;8.82;76.41;99587.69;5096690;28;20040;-66
2023/02/19 01:44:36;;;;;;;0.43;0.43;;;;;;;8.96;75.85;99577.56;5096420;28;20040;-66
2023/02/19 01:47:05;;;;;;;0.40;0.40;;;;;;;9.08;75.74;99583.56;5095047;28;20044;-65
2023/02/19 01:49:39;;;;;;;0.40;0.40;;;;;;;9.10;75.88;99586.97;5096607;28;20043;-65
2023/02/19 01:52:16;;;;;;;0.40;0.40;;;;;;;9.05;76.03;99583.53;5096526;28;20055;-66
2023/02/19 01:54:48;;;;;;;0.32;0.32;;;;;;;8.99;76.56;99591.19;5096232;28;20048;-66
2023/02/19 01:57:22;;;;;;;0.40;0.40;;;;;;;8.89;75.89;99596.19;5094919;28;20603;-66
2023/02/19 01:59:55;;;;;;;0.43;0.43;;;;;;;8.76;76.97;99590.19;5095532;28;20057;-66
2023/02/19 02:02:26;;;;;;;0.50;0.50;;;;;;;8.65;77.16;99589.31;5095177;28;20044;-66
2023/02/19 02:04:55;;;;;;;0.40;0.40;;;;;;;8.57;77.33;99593.47;5096342;28;20486;-65
2023/02/19 02:12:48;;;;;;;0.60;0.60;;;;;;;8.40;78.21;99595.06;5095789;28;20075;-66
2023/02/19 02:15:17;;;;;;;0.20;0.20;;;;;;;8.54;77.72;99594.31;5095766;28;20044;-66
2023/02/19 02:17:54;;;;;;;0.32;0.32;;;;;;;8.67;78.60;99595.25;5094538;28;20486;-66
2023/02/19 02:20:42;;;;;;;0.40;0.40;;;;;;;8.75;78.20;99589.38;5095422;28;20048;-66
2023/02/19 02:23:22;;;;;;;0.30;0.30;;;;;;;8.83;78.92;99583.47;5095628;28;20068;-65
2023/02/19 02:26:08;;;;;;;0.40;0.40;;;;;;;8.89;78.66;99581.78;5095606;28;20040;-66
2023/02/19 02:29:14;;;;;;;0.30;0.30;;;;;;;8.92;78.67;99576.72;5095503;28;20048;-65
2023/02/19 02:31:52;;;;;;;0.30;0.30;;;;;;;8.88;78.57;99572.44;5094277;28;20127;-66
2023/02/19 02:34:27;;;;;;;0.30;0.30;;;;;;;8.86;78.18;99571.59;5094226;28;20052;-66
2023/02/19 02:36:57;;;;;;;0.50;0.50;;;;;;;8.83;78.42;99571.56;5094335;28;20045;-65
2023/02/19 02:39:29;;;;;;;0.85;0.40;;;;;;;8.78;78.38;99563.09;5095394;28;20067;-65
2023/02/19 02:44:40;;;;;;;0.60;0.60;;;;;;;8.77;78.27;99566.47;5095188;28;20571;-65
2023/02/19 02:47:40;;;;;;;0.40;0.40;;;;;;;8.80;78.43;99576.66;5095456;28;20559;-65
2023/02/19 02:50:06;;;;;;;0.40;0.40;;;;;;;8.72;79.16;99578.31;5093804;28;20044;-65
2023/02/19 02:55:22;;;;;;;0.35;0.35;;;;;;;8.64;79.14;99567.25;5093829;28;20054;-66
2023/02/19 02:57:51;;;;;;;0.30;0.30;;;;;;;8.61;79.57;99559.63;5094921;28;20037;-65
2023/02/19 03:00:21;;;;;;;0.45;0.45;;;;;;;8.57;79.67;99552.78;5094051;28;20040;-65
2023/02/19 03:02:49;;;;;;;;;;;;;;;8.50;80.33;99556.16;5094396;28;20048;-66
2023/02/19 03:08:06;;;;;;;0.40;0.40;;;;;;;8.46;81.04;99539.19;5095162;28;20044;-65
2023/02/19 03:10:40;;;;;;;0.50;0.50;;;;;;;8.47;80.22;99540.91;5093857;28;20401;-66
2023/02/19 03:21:29;;;;;;;0.40;0.40;;;;;;;8.66;80.60;99547.78;5093374;28;20040;-66
2023/02/19 03:26:40;;;;;;;0.40;0.40;;;;;;;8.74;80.25;99551.19;5095062;28;20122;-65
2023/02/19 03:31:57;;;;;;;0.40;0.40;;;;;;;8.71;79.98;99552.00;5092514;28;20048;-65
2023/02/19 03:34:36;;;;;;;0.40;0.40;;;;;;;8.75;80.20;99547.81;5094640;28;20052;-66
2023/02/19 03:37:12;;;;;;;0.57;0.57;;;;;;;8.71;79.89;99546.06;5094441;28;20521;-67
2023/02/19 03:39:44;;;;;;;0.30;0.30;;;;;;;8.70;80.03;99546.94;5093031;28;20055;-65
2023/02/19 03:42:30;;;;;;;0.50;0.50;;;;;;;8.67;80.12;99560.50;5094224;28;20452;-65
2023/02/19 03:45:15;;;;;;;0.28;0.28;;;;;;;8.68;81.11;99566.44;5094142;28;20054;-65
2023/02/19 03:47:52;;;;;;;0.68;0.68;;;;;;;8.67;80.56;99569.81;5092924;28;20036;-67
2023/02/19 03:50:27;;;;;;;0.40;0.40;;;;;;;8.69;80.48;99563.03;5094094;28;20054;-66
2023/02/19 03:53:07;;;;;;;0.30;0.30;;;;;;;8.74;81.09;99556.28;5093157;28;20098;-66
2023/02/19 03:55:44;;;;;;;0.30;0.30;;;;;;;8.78;81.19;99547.81;5094025;28;20131;-66
2023/02/19 03:58:18;;;;;;;0.60;0.60;;;;;;;8.80;80.97;99553.75;5092743;28;20063;-66
2023/02/19 04:00:55;;;;;;;0.30;0.30;;;;;;;8.86;81.30;99546.16;5093889;28;20058;-66
2023/02/19 04:03:29;;;;;;;0.63;0.63;;;;;;;8.87;81.03;99552.94;5094143;28;20504;-66
2023/02/19 04:06:04;;;;;;;0.40;0.40;;;;;;;8.86;81.22;99556.31;5092711;28;20071;-67
2023/02/19 04:08:37;;;;;;;0.30;0.30;;;;;;;8.84;81.11;99552.94;5092816;28;20097;-67
2023/02/19 04:11:07;;;;;;;0.90;0.90;;;;;;;8.86;81.22;99563.94;5092956;28;20056;-66
2023/02/19 04:13:42;;;;;;;0.43;0.43;;;;;;;8.86;80.92;99545.28;5093738;28;20055;-67
2023/02/19 04:16:17;;;;;;;0.45;0.45;;;;;;;8.87;80.94;99540.22;5093939;28;20055;-67
2023/02/19 04:18:50;;;;;;;0.35;0.35;;;;;;;8.89;81.53;99541.06;5093377;28;20180;-66
2023/02/19 04:21:22;;;;;;;0.40;0.40;;;;;;;8.95;80.61;99537.72;5092785;28;20529;-66
2023/02/19 04:23:52;;;;;;;0.22;0.22;;;;;;;8.96;81.06;99535.16;5093639;28;20040;-66
2023/02/19 04:26:22;;;;;;;0.90;0.85;;;;;;;8.95;80.89;99535.16;5093599;28;20536;-67
2023/02/19 04:28:51;;;;;;;0.40;0.40;;;;;;;8.89;80.47;99530.91;5094091;28;20453;-66
2023/02/19 04:31:20;;;;;;;0.55;0.55;;;;;;;8.78;80.88;99530.03;5093827;28;20067;-67
2023/02/19 04:33:49;;;;;;;0.35;0.35;;;;;;;8.71;81.09;99521.50;5093850;28;20036;-66
2023/02/19 04:36:18;;;;;;;0.32;0.32;;;;;;;8.66;82.09;99537.59;5094103;28;20117;-66
2023/02/19 04:38:48;;;;;;;0.35;0.35;;;;;;;8.69;82.09;99535.03;5093842;28;20071;-66
2023/02/19 04:41:17;;;;;;;1.23;1.10;;;;;;;8.71;81.46;99528.25;5093513;28;20052;-66
2023/02/19 04:43:46;;;;;;;0.60;0.60;;;;;;;8.69;82.11;99522.31;5095412;28;20121;-66
2023/02/19 04:46:15;;;;;;;0.73;0.60;;;;;;;8.66;81.69;99528.25;5097521;28;20040;-66
2023/02/19 04:48:44;;;;;;;0.40;0.40;;;;;;;8.63;81.22;99519.75;5097431;28;20044;-66
2023/02/19 04:51:13;;;;;;;0.35;0.35;;;;;;;8.60;82.01;99527.38;5097509;28;20039;-67
2023/02/19 04:53:42;;;;;;;0.30;0.30;;;;;;;8.56;82.13;99536.69;5097381;28;20043;-67
2023/02/19 04:56:15;;;;;;;0.40;0.40;;;;;;;8.55;82.65;99539.22;5097673;28;20464;-66
2023/02/19 04:58:44;;;;;;;0.50;0.50;;;;;;;8.56;81.98;99543.47;5097213;28;20071;-66
2023/02/19 05:01:14;;;;;;;0.30;0.30;;;;;;;8.53;81.77;99538.38;5097570;28;20131;-66
2023/02/19 05:03:43;;;;;;;0.70;0.70;;;;;;;8.52;82.79;99544.28;5097222;28;20075;-66
2023/02/19 05:06:13;;;;;;;0.30;0.30;;;;;;;8.53;82.23;99535.81;5097200;28;20060;-67
2023/02/19 05:08:42;;;;;;;0.50;0.50;;;;;;;8.54;82.10;99532.44;5097077;28;20131;-67
2023/02/19 05:11:12;;;;;;;0.40;0.40;;;;;;;8.60;82.66;99537.56;5096999;28;20071;-66
2023/02/19 05:13:41;;;;;;;0.40;0.40;;;;;;;8.59;82.04;99530.78;5097071;28;20490;-67
2023/02/19 05:16:15;;;;;;;0.40;0.40;;;;;;;8.60;82.85;99537.56;5097326;28;20522;-66
2023/02/19 05:18:46;;;;;;;0.20;0.20;;;;;;;8.67;82.20;99537.59;5096675;28;20059;-66
2023/02/19 05:21:15;;;;;;;0.35;0.35;;;;;;;8.80;82.59;99530.88;5097130;28;20139;-66
2023/02/19 05:23:44;;;;;;;0.40;0.40;;;;;;;8.84;81.21;99521.53;5097064;28;20375;-65
2023/02/19 05:26:17;;;;;;;0.73;0.73;;;;;;;8.88;81.02;99524.09;5097048;28;20071;-66
2023/02/19 05:28:47;;;;;;;0.22;0.22;;;;;;;8.91;80.95;99513.94;5096779;28;20086;-66
2023/02/19 05:31:17;;;;;;;0.40;0.40;;;;;;;8.89;80.54;99515.63;5096909;28;20126;-66
2023/02/19 05:33:49;;;;;;;1.00;0.93;;;;;;;8.77;80.79;99503.72;5096742;28;20044;-66
2023/02/19 05:36:20;;;;;;;0.50;0.50;;;;;;;8.74;81.36;99480.78;5096656;28;20070;-66
2023/02/19 05:38:53;;;;;;;0.40;0.40;;;;;;;8.69;81.42;99481.63;5095632;28;20477;-66
2023/02/19 05:41:26;;;;;;;0.30;0.30;;;;;;;8.66;81.51;99481.63;5096434;28;20069;-66
2023/02/19 05:43:55;;;;;;;0.30;0.30;;;;;;;8.66;81.80;99476.53;5096475;28;20067;-66
2023/02/19 05:46:26;;;;;;;0.30;0.30;;;;;;;8.68;81.78;99485.03;5096412;28;20048;-66
2023/02/19 05:48:56;;;;;;;0.40;0.40;;;;;;;8.67;81.36;99483.31;5096686;28;20040;-66
2023/02/19 05:51:26;;;;;;;0.43;0.43;;;;;;;8.68;81.72;99485.03;5096592;28;20048;-66
2023/02/19 05:53:56;;;;;;;0.32;0.32;;;;;;;8.68;81.55;99500.28;5096241;28;20032;-66
2023/02/19 05:56:32;;;;;;;0.40;0.40;;;;;;;8.68;81.97;99497.75;5095529;28;20101;-65
2023/02/19 05:59:03;;;;;;;0.30;0.30;;;;;;;8.73;81.66;99483.34;5096434;28;20044;-66
2023/02/19 06:01:32;;;;;;;0.30;0.30;;;;;;;8.78;81.55;99486.75;5096556;28;20101;-66
2023/02/19 06:04:01;;;;;;;0.40;0.40;;;;;;;8.84;81.59;99496.94;5096053;28;20501;-66
2023/02/19 06:06:30;;;;;;;0.75;0.75;;;;;;;8.92;81.29;99500.38;5095986;28;20047;-66
2023/02/19 06:08:59;;;;;;;0.40;0.40;;;;;;;9.05;81.23;99496.13;5096275;28;20078;-66
2023/02/19 06:11:30;;;;;;;0.40;0.40;;;;;;;9.10;80.96;99500.41;5095821;28;20123;-66
2023/02/19 06:13:58;;;;;;;0.30;0.30;;;;;;;9.12;80.70;99493.63;5095936;28;20044;-66
2023/02/19 06:16:27;;;;;;;0.60;0.60;;;;;;;9.14;80.96;99470.72;5095742;28;20135;-66
2023/02/19 06:18:57;;;;;;;2.10;1.75;;;;;;;9.12;80.49;99473.25;5095461;28;20135;-66
2023/02/19 06:21:25;;;;;;;0.40;0.40;;;;;;;9.11;80.85;99486.84;5095793;28;20040;-66
2023/02/19 06:23:54;;;;;;;0.40;0.40;;;;;;;9.09;80.62;99473.25;5095657;28;20490;-66
2023/02/19 06:26:25;;;;;;;0.73;0.73;;;;;;;9.05;80.42;99480.88;5095627;28;20043;-66
2023/02/19 06:28:55;;;;;;;0.40;0.40;;;;;;;8.97;80.62;99472.38;5095468;28;20076;-66
2023/02/19 06:31:24;;;;;;;0.57;0.57;;;;;;;8.91;80.34;99465.56;5095534;28;20490;-66
2023/02/19 06:33:53;;;;;;;0.40;0.40;;;;;;;8.85;81.46;99473.22;5095771;28;20044;-66
2023/02/19 06:36:23;;;;;;;0.45;0.45;;;;;;;8.68;80.91;99459.59;5095729;28;20066;-66
2023/02/19 06:38:52;;;;;;;0.32;0.32;;;;;;;8.67;81.38;99468.91;5095496;28;20439;-66
2023/02/19 06:41:21;;;;;;;0.22;0.22;;;;;;;8.64;81.61;99484.16;5095671;28;20066;-66
2023/02/19 06:43:49;;;;;;;0.30;0.30;;;;;;;8.61;81.42;99473.13;5095397;28;20535;-67
2023/02/19 06:46:20;;;;;;;0.30;0.30;;;;;;;8.58;82.16;99473.97;5095227;28;20051;-66
2023/02/19 06:48:48;;;;;;;0.40;0.40;;;;;;;8.62;81.74;99482.44;5095495;28;20516;-66
2023/02/19 06:51:22;;;;;;;0.33;0.33;;;;;;;8.58;82.23;99478.19;5095108;28;20039;-66
2023/02/19 06:53:51;;;;;;;0.20;0.20;;;;;;;8.59;82.27;99485.00;5095389;28;20066;-66
2023/02/19 06:56:26;;;;;;;0.47;0.47;;;;;;;8.60;82.45;99484.13;5098298;28;20450;-67
2023/02/19 06:58:58;;;;;;;0.82;0.82;;;;;;;8.64;82.80;99478.22;5115398;28;20075;-66
2023/02/19 07:01:29;;;;;;;0.75;0.75;;;;;;;8.69;82.30;99477.38;5115343;28;20123;-65
2023/02/19 07:03:58;;;;;;;1.05;1.02;;;;;;;8.72;83.21;99471.47;5115559;28;20051;-66
2023/02/19 07:06:27;;;;;;;1.57;1.23;;;;;;;8.72;82.70;99479.09;5114392;28;20121;-66
2023/02/19 07:08:57;;;;;;;0.50;0.50;;;;;;;8.72;83.08;99482.50;5115001;28;20047;-66
2023/02/19 07:11:29;;;;;;;0.30;0.30;;;;;;;8.73;82.79;99484.16;5115478;28;20074;-66
2023/02/19 07:14:02;;;;;;;0.38;0.38;;;;;;;8.74;82.68;99479.94;5115107;28;20062;-66
2023/02/19 07:16:32;;;;;;;0.40;0.40;;;;;;;8.75;83.45;99479.97;5115104;28;20374;-66
2023/02/19 07:19:01;;;;;;;0.50;0.50;;;;;;;8.76;83.19;99478.25;5114819;28;20370;-67
2023/02/19 07:21:30;;;;;;;0.25;0.25;;;;;;;8.75;82.80;99476.56;5115224;28;20066;-66
2023/02/19 07:23:59;;;;;;;0.60;0.60;;;;;;;8.77;83.77;99474.88;5115248;28;20425;-66
2023/02/19 07:26:28;;;;;;;0.77;0.77;;;;;;;8.77;83.45;99462.16;5114778;27;20031;-66
2023/02/19 07:28:56;;;;;;;0.40;0.40;;;;;;;8.78;83.66;99461.31;5115122;28;20035;-66
2023/02/19 07:31:25;;;;;;;0.28;0.28;;;;;;;8.79;82.97;99457.91;5115033;28;20096;-66
2023/02/19 07:33:56;;;;;;;0.53;0.53;;;;;;;8.80;84.11;99454.53;5114737;28;20109;-66
2023/02/19 07:36:25;;;;;;;0.43;0.43;;;;;;;8.85;83.76;99457.94;5114637;28;20505;-67
2023/02/19 07:38:55;;;;;;;0.63;0.63;;;;;;;8.84;83.68;99453.69;5114792;28;20382;-66
2023/02/19 07:41:24;;;;;;;0.30;0.30;;;;;;;8.89;84.19;99462.19;5114871;28;20494;-66
2023/02/19 07:43:57;;;;;;;0.73;0.73;;;;;;;8.92;84.31;99459.66;5114488;28;20572;-66
2023/02/19 07:46:26;;;;;;;1.95;0.98;;;;;;;8.95;83.81;99452.00;5114514;28;20047;-66
2023/02/19 07:48:56;;;;;;;0.32;0.32;;;;;;;8.99;83.57;99456.28;5114423;28;20050;-66
2023/02/19 07:51:24;;;;;;;0.52;0.52;;;;;;;9.03;84.10;99457.97;5114489;28;20047;-65
2023/02/19 07:53:53;;;;;;;0.30;0.30;;;;;;;9.07;84.32;99463.94;5114319;28;20043;-66
2023/02/19 07:56:22;;;;;;;0.50;0.50;;;;;;;9.12;84.41;99468.16;5113967;28;20042;-66
2023/02/19 07:58:51;;;;;;;0.40;0.40;;;;;;;9.17;84.85;99479.19;5114557;28;20496;-65
2023/02/19 08:02:58;;;;;;;0.93;0.70;;;;;;;9.22;84.99;99471.56;5114210;28;20105;-65
2023/02/19 08:04:13;;;;;;;0.20;0.20;;;;;;;9.26;85.70;99466.47;5114569;28;20051;-66
2023/02/19 08:06:43;;;;;;;0.30;0.30;;;;;;;9.30;85.21;99462.25;5114432;28;20417;-65
2023/02/19 08:09:12;;;;;;;0.57;0.52;;;;;;;9.34;86.38;99453.75;5114149;28;20043;-66
2023/02/19 08:14:19;;;;;;;0.75;0.75;;;;;;;9.40;86.12;99458.88;5114131;28;20048;-65
2023/02/19 08:16:49;;;;;;;0.40;0.40;;;;;;;9.43;87.13;99464.78;5113992;28;20046;-65
2023/02/19 08:19:20;;;;;;;0.40;0.40;;;;;;;9.45;87.32;99472.44;5113614;28;20044;-65
2023/02/19 08:21:49;;;;;;;0.20;0.20;;;;;;;9.47;87.53;99475.00;5113886;28;20135;-64
2023/02/19 08:24:18;;;;;;;0.30;0.30;;;;;;;9.44;88.35;99470.75;5113852;28;20577;-64
2023/02/19 08:26:46;;;;;;;0.50;0.50;;;;;;;9.42;87.93;99469.91;5114214;28;20126;-64
2023/02/19 08:29:15;;;;;;;1.57;1.00;;;;;;;9.40;88.59;99467.34;5114161;28;20036;-64
2023/02/19 08:31:44;;;;;;;0.30;0.30;;;;;;;9.41;89.50;99469.03;5113908;28;20096;-64
2023/02/19 08:34:13;;;;;;;0.73;0.73;;;;;;;9.41;89.15;99471.59;5114108;28;20408;-64
2023/02/19 08:36:43;;;;;;;0.35;0.35;;;;;;;9.42;89.93;99473.31;5114220;28;20039;-64
2023/02/19 08:39:11;;;;;;;2.58;0.68;;;;;;;9.44;89.89;99476.69;5114019;28;20050;-64
2023/02/19 08:41:40;;;;;;;0.20;0.20;;;;;;;9.43;90.58;99474.97;5113845;28;20047;-64
2023/02/19 08:44:09;;;;;;;0.37;0.37;;;;;;;9.48;90.94;99471.59;5113790;28;20093;-64
2023/02/19 08:46:38;;;;;;;0.65;0.65;;;;;;;9.52;91.06;99474.16;5113806;28;20280;-64
2023/02/19 08:49:06;;;;;;;0.40;0.40;;;;;;;9.55;91.94;99479.22;5113708;28;20074;-64
2023/02/19 08:51:35;;;;;;;0.20;0.20;;;;;;;9.61;91.82;99468.19;5113621;28;20427;-64
2023/02/19 08:54:05;;;;;;;0.30;0.30;;;;;;;9.64;92.54;99465.66;5114034;28;20043;-63
2023/02/19 08:56:35;;;;;;;0.55;0.55;;;;;;;9.70;92.64;99458.84;5113686;28;20524;-63
2023/02/19 08:59:04;;;;;;;0.30;0.30;;;;;;;9.75;92.90;99453.75;5113944;28;20040;-64
2023/02/19 09:01:33;;;;;;;1.80;1.02;;;;;;;9.83;93.14;99454.59;5113896;28;20061;-64
2023/02/19 09:04:02;;;;;;;0.40;0.40;;;;;;;9.85;92.79;99447.78;5111458;28;20394;-65
2023/02/19 09:06:31;;;;;;;0.40;0.40;;;;;;;9.82;93.18;99445.22;5112959;28;20123;-65
2023/02/19 09:09:01;;;;;;;1.48;0.73;;;;;;;9.81;93.46;99446.09;5113504;28;20056;-64
2023/02/19 09:11:32;;;;;;;0.77;0.77;;;;;;;9.77;93.77;99450.34;5113459;28;20044;-64
2023/02/19 09:14:01;;;;;;;0.43;0.43;;;;;;;9.75;93.59;99446.09;5113163;28;20122;-66
2023/02/19 09:16:30;;;;;;;0.40;0.40;;;;;;;9.79;93.70;99447.81;5113182;28;20119;-65
2023/02/19 09:18:58;;;;;;;0.30;0.30;;;;;;;9.91;93.82;99447.78;5113046;28;20054;-64
2023/02/19 09:21:27;;;;;;;0.50;0.50;;;;;;;10.10;94.32;99429.03;5113427;28;20074;-65
2023/02/19 09:23:56;;;;;;;0.53;0.53;;;;;;;10.26;94.19;99423.06;5113675;28;20036;-65
2023/02/19 09:26:24;;;;;;;0.28;0.28;;;;;;;10.52;94.46;99430.59;5113625;28;20276;-65
2023/02/19 09:28:54;;;;;;;0.30;0.30;;;;;;;10.80;94.94;99431.31;5113293;28;20235;-65
2023/02/19 09:31:23;;;;;;;0.35;0.35;;;;;;;10.97;94.70;99437.16;5115964;28;20043;-65
2023/02/19 09:33:52;;;;;;;0.40;0.40;;;;;;;11.05;94.60;99443.06;5116221;28;20043;-65
2023/02/19 09:36:21;;;;;;;0.38;0.38;;;;;;;11.15;94.56;99437.91;5117228;28;20040;-65
2023/02/19 09:38:49;;;;;;;0.65;0.65;;;;;;;11.33;94.41;99424.97;5117140;27;20036;-66
2023/02/19 09:41:26;;;;;;;0.47;0.47;;;;;;;11.47;94.24;99424.03;5116814;28;20035;-66
2023/02/19 09:43:58;;;;;;;0.40;0.40;;;;;;;11.53;93.91;99419.69;5116561;28;20521;-67
2023/02/19 09:46:31;;;;;;;1.33;0.90;;;;;;;11.55;93.84;99424.78;5116241;28;20050;-67
2023/02/19 09:49:05;;;;;;;0.70;0.70;;;;;;;11.49;93.45;99415.50;5116695;28;20122;-67
2023/02/19 09:51:38;;;;;;;0.32;0.32;;;;;;;11.40;93.40;99423.22;5116702;28;20043;-66
2023/02/19 09:54:11;;;;;;;0.30;0.30;;;;;;;11.45;93.31;99431.69;5116599;28;20055;-66
2023/02/19 09:56:40;;;;;;;0.50;0.50;;;;;;;11.65;92.99;99424.72;5116836;28;20042;-66
2023/02/19 09:59:19;;;;;;;0.40;0.40;;;;;;;11.97;92.81;99411.63;5116444;28;20043;-67
2023/02/19 10:01:52;;;;;;;0.60;0.60;;;;;;;12.09;92.02;99417.44;5116492;28;20290;-67
2023/02/19 10:04:21;;;;;;;0.40;0.40;;;;;;;12.26;91.66;99409.56;5116670;28;20447;-67
2023/02/19 10:06:50;;;;;;;0.43;0.43;;;;;;;12.37;90.83;99401.78;5116456;28;20122;-68
2023/02/19 10:09:22;;;;;;;;;;;;;;;12.42;89.78;99405.13;5116964;28;20054;-67
2023/02/19 10:11:53;;;;;;;1.38;0.63;;;;;;;12.44;88.66;99401.69;5116570;28;19927;-67
2023/02/19 10:14:33;;;;;;;0.88;0.82;;;;;;;12.41;87.58;99398.31;5116179;28;20059;-67
2023/02/19 10:17:05;;;;;;;0.75;0.50;;;;;;;12.34;86.30;99402.66;5114541;28;20043;-67
2023/02/19 10:19:34;;;;;;;0.30;0.30;;;;;;;12.32;85.89;99393.31;5115471;28;20036;-67
2023/02/19 10:22:03;;;;;;;;;;;;;;;12.26;85.15;99388.28;5114382;28;20084;-67
2023/02/19 10:24:32;;;;;;;0.32;0.32;;;;;;;12.14;84.60;99389.25;5116047;28;19947;-67
2023/02/19 10:27:01;;;;;;;0.30;0.30;;;;;;;12.09;83.95;99386.75;5116011;28;20040;-67
2023/02/19 10:29:31;;;;;;;0.20;0.20;;;;;;;12.09;83.31;99366.28;5114759;28;20488;-69
2023/02/19 10:32:15;;;;;;;0.40;0.40;;;;;;;12.19;82.77;99386.66;5116007;28;20043;-67
2023/02/19 10:34:44;;;;;;;0.40;0.40;;;;;;;12.26;82.36;99380.59;5114465;28;20096;-68
2023/02/19 10:37:16;;;;;;;0.43;0.43;;;;;;;12.26;82.29;99388.28;5115345;28;20081;-66
2023/02/19 10:39:47;;;;;;;0.40;0.40;;;;;;;12.23;82.03;99398.53;5115615;28;20035;-67
2023/02/19 10:42:21;;;;;;;0.20;0.20;;;;;;;12.21;82.04;99382.38;5114846;28;20044;-67
2023/02/19 10:44:57;;;;;;;0.52;0.52;;;;;;;12.19;81.54;99391.78;5113518;28;20067;-68
2023/02/19 10:47:27;;;;;;;0.68;0.68;;;;;;;12.08;81.59;99361.19;5113231;28;20047;-68
2023/02/19 10:49:58;;;;;;;1.75;0.70;;;;;;;12.05;81.42;99369.75;5115493;28;20126;-67
2023/02/19 10:52:30;;;;;;;1.23;1.13;;;;;;;11.99;81.53;99374.09;5115525;27;20494;-67
2023/02/19 10:55:16;;;;;;;0.30;0.30;;;;;;;11.98;81.31;99378.38;5115635;28;20043;-67
2023/02/19 10:57:45;;;;;;;0.20;0.20;;;;;;;11.97;81.34;99378.41;5115784;28;20055;-67
2023/02/19 11:00:25;;;;;;;0.57;0.50;;;;;;;12.02;81.59;99392.81;5114790;28;20035;-67
2023/02/19 11:03:15;;;;;;;0.88;0.52;;;;;;;12.07;81.67;99385.94;5112980;28;20058;-67
2023/02/19 11:05:55;;;;;;;0.47;0.47;;;;;;;12.09;81.80;99380.81;5115303;28;20046;-67
2023/02/19 11:08:24;;;;;;;0.30;0.30;;;;;;;12.12;81.84;99369.69;5115247;28;20383;-68
2023/02/19 11:10:53;;;;;;;0.40;0.40;;;;;;;12.09;82.06;99361.16;5115111;28;20079;-67
2023/02/19 11:13:29;;;;;;;0.20;0.20;;;;;;;12.28;82.07;99360.97;5113779;28;20326;-68
2023/02/19 11:16:00;;;;;;;0.40;0.40;;;;;;;12.57;81.67;99379.34;5115489;28;20126;-67
2023/02/19 11:18:31;;;;;;;0.50;0.50;;;;;;;12.68;81.07;99382.59;5114728;28;20108;-67
2023/02/19 11:21:02;;;;;;;0.38;0.38;;;;;;;12.65;80.71;99369.81;5113741;28;20497;-67
2023/02/19 11:23:34;;;;;;;0.28;0.28;;;;;;;12.73;80.98;99365.44;5115159;28;20116;-67
2023/02/19 11:26:06;;;;;;;0.40;0.40;;;;;;;12.78;80.32;99371.34;5114939;28;20040;-67
2023/02/19 11:28:37;;;;;;;0.35;0.35;;;;;;;12.90;80.04;99376.28;5114744;28;20057;-67
2023/02/19 11:31:24;;;;;;;0.40;0.40;;;;;;;13.01;78.80;99391.47;5115075;28;20127;-68
2023/02/19 11:33:59;;;;;;;0.25;0.25;;;;;;;13.04;78.52;99392.31;5114787;28;20047;-69
2023/02/19 11:36:30;;;;;;;0.40;0.40;;;;;;;12.88;78.10;99398.53;5114657;28;20448;-68
2023/02/19 11:39:11;;;;;;;0.40;0.40;;;;;;;12.68;78.09;99395.41;5114621;28;20044;-68
2023/02/19 11:42:03;;;;;;;0.47;0.47;;;;;;;12.47;77.78;99405.94;5114819;28;20374;-69
2023/02/19 11:44:43;;;;;;;0.30;0.30;;;;;;;12.31;77.65;99400.13;5114443;28;20044;-68
2023/02/19 11:47:41;;;;;;;0.40;0.40;;;;;;;12.19;77.73;99392.59;5114845;28;20062;-68
2023/02/19 11:50:21;;;;;;;0.55;0.55;;;;;;;12.16;78.02;99396.94;5109164;28;20032;-68
2023/02/19 11:53:02;;;;;;;0.30;0.30;;;;;;;12.16;78.28;99391.81;5113837;27;20044;-68
2023/02/19 11:55:45;;;;;;;0.30;0.30;;;;;;;12.17;78.39;99403.72;5114655;28;20501;-68
2023/02/19 11:58:38;;;;;;;0.30;0.30;;;;;;;12.17;78.18;99404.56;5114421;27;20101;-68
2023/02/19 12:01:15;;;;;;;0.60;0.60;;;;;;;12.17;77.83;99393.50;5114096;28;20051;-69
2023/02/19 12:04:08;;;;;;;0.70;0.70;;;;;;;12.10;77.83;99388.47;5114252;28;20044;-67
2023/02/19 12:06:51;;;;;;;0.38;0.38;;;;;;;12.04;78.06;99393.63;5114231;28;20050;-68
2023/02/19 12:09:34;;;;;;;0.40;0.40;;;;;;;11.96;78.19;99392.88;5114087;28;20050;-67
2023/02/19 12:12:23;;;;;;;0.30;0.30;;;;;;;11.87;77.91;99382.75;5112488;28;20044;-67
2023/02/19 12:15:04;;;;;;;0.30;0.30;;;;;;;11.80;78.05;99386.25;5113783;28;20138;-67
2023/02/19 12:17:51;;;;;;;0.30;0.30;;;;;;;11.83;78.23;99372.59;5114128;28;20101;-68
2023/02/19 12:20:31;;;;;;;0.20;0.20;;;;;;;11.78;78.11;99380.28;5113990;28;20054;-68
2023/02/19 12:23:06;;;;;;;;;;;;;;;11.79;77.87;99389.66;5114729;28;20126;-67
2023/02/19 12:25:53;;;;;;;0.30;0.30;;;;;;;11.80;77.29;99372.63;5113813;28;19968;-69
2023/02/19 12:28:48;;;;;;;0.25;0.25;;;;;;;11.81;76.36;99390.47;5113882;28;20048;-67
2023/02/19 12:31:37;;;;;;;0.30;0.30;;;;;;;11.86;76.07;99398.94;5086794;28;20059;-67
2023/02/19 12:34:26;;;;;;;0.30;0.30;;;;;;;11.88;75.81;99386.16;5114039;28;20031;-68
2023/02/19 12:37:08;;;;;;;0.43;0.43;;;;;;;11.86;75.66;99383.63;5111575;28;20040;-67